Time;durP1;ratioP1;P1;durP2;ratioP2;P2;SDS_P1;SDS_P2;PMS_P1;PMS_P2;Temp;Humidity;BMP_temperature;BMP_pressure;BME280_temperature;BME280_humidity;BME280_pressure;Samples;Min_cycle;Max_cycle;Signal;HPM_P1;HPM_P2
2021/12/16 00:06:51;;;;;;;0.00;0.00;;;4.40;99.90;;;;;;4995203;28;20065;-84
2021/12/16 00:09:01;;;;;;;0.00;0.00;;;4.40;99.90;;;;;;4994782;28;20026;-83
2021/12/16 00:35:08;;;;;;;1.00;0.90;;;4.50;99.90;;;;;;5013979;28;20033;-84
2021/12/16 00:37:33;;;;;;;0.00;0.00;;;4.40;99.90;;;;;;5014322;28;20482;-83
2021/12/16 00:39:59;;;;;;;0.00;0.00;;;4.40;99.90;;;;;;5014143;28;20112;-83
2021/12/16 00:42:38;;;;;;;0.08;0.08;;;4.50;99.90;;;;;;5014565;28;20036;-83
2021/12/16 00:55:53;;;;;;;0.20;0.20;;;4.50;99.90;;;;;;5014106;28;20073;-84
2021/12/16 00:58:27;;;;;;;0.00;0.00;;;4.50;99.90;;;;;;5012233;28;20053;-83
2021/12/16 01:01:03;;;;;;;0.30;0.30;;;4.60;99.90;;;;;;4993038;28;20378;-83
2021/12/16 01:41:58;;;;;;;0.00;0.00;;;4.70;99.90;;;;;;4993594;28;20052;-84
2021/12/16 01:54:53;;;;;;;0.63;0.63;;;4.60;99.90;;;;;;4993370;28;20374;-83
2021/12/16 01:57:32;;;;;;;0.10;0.10;;;4.70;99.90;;;;;;4992903;28;20046;-84
2021/12/16 02:00:05;;;;;;;0.25;0.25;;;4.60;99.90;;;;;;4993340;28;20019;-84
2021/12/16 02:10:39;;;;;;;0.00;0.00;;;4.70;99.90;;;;;;4993233;28;20371;-83
2021/12/16 02:37:16;;;;;;;0.00;0.00;;;4.50;99.90;;;;;;4996824;28;20141;-84
2021/12/16 02:39:44;;;;;;;0.13;0.13;;;4.50;99.90;;;;;;4995413;28;20390;-83
2021/12/16 02:42:21;;;;;;;0.38;0.38;;;4.50;99.90;;;;;;4996996;28;20027;-83
2021/12/16 02:50:04;;;;;;;0.00;0.00;;;4.50;99.90;;;;;;4996526;28;20515;-83
2021/12/16 02:52:30;;;;;;;0.38;0.38;;;4.50;99.90;;;;;;4996697;28;20077;-84
2021/12/16 02:54:56;;;;;;;0.28;0.28;;;4.50;99.90;;;;;;4996482;28;20104;-83
2021/12/16 02:57:24;;;;;;;0.00;0.00;;;4.50;99.90;;;;;;4996377;28;20047;-85
2021/12/16 02:59:52;;;;;;;0.10;0.10;;;4.40;99.90;;;;;;4996429;28;20081;-83
2021/12/16 03:02:19;;;;;;;0.00;0.00;;;4.40;99.90;;;;;;4996384;28;20061;-84
2021/12/16 03:04:48;;;;;;;0.00;0.00;;;4.40;99.90;;;;;;4996422;28;20109;-83
2021/12/16 03:07:15;;;;;;;0.00;0.00;;;4.40;99.90;;;;;;4995608;28;20065;-84
2021/12/16 03:15:39;;;;;;;0.30;0.30;;;4.40;99.90;;;;;;4995829;28;20412;-84
2021/12/16 03:18:24;;;;;;;0.10;0.10;;;4.30;99.90;;;;;;4995977;28;20030;-84
2021/12/16 03:20:56;;;;;;;0.00;0.00;;;4.30;99.90;;;;;;4996089;28;20030;-83
2021/12/16 03:26:09;;;;;;;0.10;0.10;;;4.30;99.90;;;;;;5003684;28;20018;-83
2021/12/16 03:34:25;;;;;;;0.20;0.13;;;4.30;99.90;;;;;;5015455;28;20032;-83
2021/12/16 03:37:13;;;;;;;0.50;0.50;;;4.40;99.90;;;;;;5015447;28;20025;-83
2021/12/16 03:39:51;;;;;;;0.00;0.00;;;4.40;99.90;;;;;;5015372;28;20034;-84
2021/12/16 03:42:24;;;;;;;0.20;0.20;;;4.30;99.90;;;;;;5015526;28;20033;-84
2021/12/16 03:44:56;;;;;;;0.00;0.00;;;4.30;99.90;;;;;;5014752;28;20026;-83
2021/12/16 03:47:32;;;;;;;0.10;0.10;;;4.30;99.90;;;;;;5014769;28;20065;-83
2021/12/16 03:49:59;;;;;;;0.73;0.73;;;4.30;99.90;;;;;;5015138;28;20097;-83
2021/12/16 03:52:26;;;;;;;0.20;0.20;;;4.30;99.90;;;;;;5025023;28;20053;-84
2021/12/16 03:54:54;;;;;;;0.70;0.65;;;4.30;99.90;;;;;;5029703;28;20016;-83
2021/12/16 03:57:23;;;;;;;0.25;0.25;;;4.30;99.90;;;;;;5038317;28;20053;-83
2021/12/16 03:59:50;;;;;;;0.22;0.22;;;4.30;99.90;;;;;;5027008;28;20426;-83
2021/12/16 04:02:24;;;;;;;0.10;0.10;;;4.30;99.90;;;;;;5000581;28;20505;-83
2021/12/16 04:04:51;;;;;;;0.25;0.25;;;4.30;99.90;;;;;;5004874;28;20062;-85
2021/12/16 04:07:23;;;;;;;0.13;0.13;;;4.30;99.90;;;;;;5011878;28;20034;-84
2021/12/16 04:09:51;;;;;;;0.10;0.10;;;4.30;99.90;;;;;;5007640;28;20117;-84
2021/12/16 04:12:20;;;;;;;0.30;0.28;;;4.30;99.90;;;;;;4994293;28;20050;-83
2021/12/16 04:14:51;;;;;;;0.10;0.10;;;4.30;99.90;;;;;;4994021;28;20073;-82
2021/12/16 04:17:20;;;;;;;0.10;0.10;;;4.40;99.90;;;;;;4997403;28;20022;-83
2021/12/16 04:19:47;;;;;;;0.10;0.10;;;4.40;99.90;;;;;;4993714;28;20076;-84
2021/12/16 04:22:17;;;;;;;0.03;0.03;;;4.40;99.90;;;;;;4995136;28;20508;-83
2021/12/16 04:24:46;;;;;;;0.98;0.47;;;4.40;99.90;;;;;;4994840;28;20014;-83
2021/12/16 04:27:13;;;;;;;0.03;0.03;;;4.40;99.90;;;;;;5012323;28;20026;-83
2021/12/16 04:29:39;;;;;;;0.10;0.10;;;4.40;99.90;;;;;;5014329;28;20442;-83
2021/12/16 04:32:06;;;;;;;0.00;0.00;;;4.40;99.90;;;;;;5001928;28;20030;-83
2021/12/16 04:34:32;;;;;;;0.00;0.00;;;4.40;99.90;;;;;;4994775;28;20045;-83
2021/12/16 04:36:59;;;;;;;0.38;0.38;;;4.40;99.90;;;;;;4994831;28;20108;-83
2021/12/16 04:39:28;;;;;;;0.00;0.00;;;4.50;99.90;;;;;;4993201;28;20509;-83
2021/12/16 04:41:55;;;;;;;0.57;0.10;;;4.50;99.90;;;;;;4994589;28;20022;-84
2021/12/16 04:44:24;;;;;;;0.00;0.00;;;4.50;99.90;;;;;;4994616;28;20075;-84
2021/12/16 04:46:51;;;;;;;0.25;0.25;;;4.40;99.90;;;;;;4993287;28;20121;-84
2021/12/16 04:49:18;;;;;;;0.00;0.00;;;4.40;99.90;;;;;;4994415;28;20096;-84
2021/12/16 04:51:48;;;;;;;0.20;0.20;;;4.40;99.90;;;;;;4994605;28;20481;-83
2021/12/16 04:54:18;;;;;;;0.60;0.55;;;4.40;99.90;;;;;;4994115;28;20049;-83
2021/12/16 04:56:45;;;;;;;0.10;0.10;;;4.50;99.90;;;;;;4994678;28;20497;-83
2021/12/16 04:59:15;;;;;;;0.00;0.00;;;4.40;99.90;;;;;;4992542;28;20038;-83
2021/12/16 05:01:46;;;;;;;0.00;0.00;;;4.50;99.90;;;;;;4992401;28;20436;-83
2021/12/16 05:04:12;;;;;;;0.10;0.10;;;4.50;99.90;;;;;;4993977;28;20493;-84
2021/12/16 05:06:38;;;;;;;0.22;0.22;;;4.50;99.90;;;;;;4994281;28;20018;-83
2021/12/16 05:09:06;;;;;;;0.20;0.20;;;4.50;99.90;;;;;;4993823;28;20037;-83
2021/12/16 05:11:35;;;;;;;0.15;0.15;;;4.50;99.90;;;;;;4993932;28;20098;-84
2021/12/16 05:14:03;;;;;;;0.00;0.00;;;4.50;99.90;;;;;;4994081;28;20106;-83
2021/12/16 05:16:29;;;;;;;0.00;0.00;;;4.50;99.90;;;;;;4994018;28;20034;-84
2021/12/16 05:18:56;;;;;;;0.28;0.28;;;4.50;99.90;;;;;;4993592;28;20113;-83
2021/12/16 05:26:59;;;;;;;1.15;1.05;;;4.50;99.90;;;;;;5009835;28;20588;-83
2021/12/16 05:29:25;;;;;;;0.00;0.00;;;4.60;99.90;;;;;;5012203;28;20026;-84
2021/12/16 05:31:52;;;;;;;0.45;0.15;;;4.60;99.90;;;;;;5002486;28;20022;-83
2021/12/16 05:34:20;;;;;;;0.15;0.15;;;4.60;99.90;;;;;;4993397;28;20069;-84
2021/12/16 05:36:46;;;;;;;0.00;0.00;;;4.60;99.90;;;;;;4993970;28;20015;-84
2021/12/16 05:39:14;;;;;;;0.17;0.17;;;4.60;99.90;;;;;;4993491;28;20030;-83
2021/12/16 05:41:40;;;;;;;0.00;0.00;;;4.60;99.90;;;;;;4993507;28;20030;-84
2021/12/16 05:44:06;;;;;;;0.00;0.00;;;4.60;99.90;;;;;;4993305;28;20088;-83
2021/12/16 05:46:32;;;;;;;0.10;0.10;;;4.70;99.90;;;;;;4992956;28;20026;-83
2021/12/16 05:49:00;;;;;;;0.00;0.00;;;4.70;99.90;;;;;;4993310;28;20026;-83
2021/12/16 05:51:31;;;;;;;0.00;0.00;;;4.70;99.90;;;;;;4993629;28;20097;-83
2021/12/16 05:54:01;;;;;;;0.08;0.08;;;4.70;99.90;;;;;;4993114;28;20088;-84
2021/12/16 05:56:28;;;;;;;2.45;0.60;;;4.70;99.90;;;;;;5009494;28;20038;-83
2021/12/16 05:58:54;;;;;;;0.10;0.10;;;4.80;99.90;;;;;;5007629;28;20054;-84
2021/12/16 06:01:24;;;;;;;0.13;0.13;;;4.80;99.90;;;;;;4992996;28;20108;-82
2021/12/16 06:04:02;;;;;;;0.00;0.00;;;4.80;99.90;;;;;;4993316;28;20441;-83
2021/12/16 06:06:29;;;;;;;0.40;0.30;;;4.80;99.90;;;;;;4991951;28;20034;-83
2021/12/16 06:08:56;;;;;;;0.03;0.03;;;4.90;99.90;;;;;;4991497;28;20521;-83
2021/12/16 06:11:26;;;;;;;0.10;0.10;;;4.80;99.90;;;;;;4992834;28;20022;-83
2021/12/16 06:14:02;;;;;;;0.15;0.15;;;4.90;99.90;;;;;;4993233;28;20105;-83
2021/12/16 06:27:35;;;;;;;11.30;1.35;;;4.90;99.90;;;;;;4993158;28;20432;-83
2021/12/16 06:30:03;;;;;;;0.10;0.10;;;4.90;99.90;;;;;;4992983;28;20110;-83
2021/12/16 06:32:29;;;;;;;1.17;0.65;;;4.90;99.90;;;;;;5001096;28;20010;-83
2021/12/16 06:35:00;;;;;;;0.05;0.05;;;5.00;99.90;;;;;;5001421;28;20029;-84
2021/12/16 06:37:26;;;;;;;0.00;0.00;;;5.00;99.90;;;;;;5002033;28;20474;-84
2021/12/16 06:39:52;;;;;;;2.92;1.40;;;5.00;99.90;;;;;;5011251;28;20030;-83
2021/12/16 06:42:19;;;;;;;0.00;0.00;;;5.00;99.90;;;;;;5012529;28;20024;-84
2021/12/16 06:44:52;;;;;;;0.30;0.30;;;5.00;99.90;;;;;;5011590;28;20026;-82
2021/12/16 06:47:23;;;;;;;1.25;0.43;;;5.00;99.90;;;;;;5012502;28;20018;-83
2021/12/16 06:49:52;;;;;;;0.28;0.28;;;5.00;99.90;;;;;;5012067;28;20057;-83
2021/12/16 06:52:22;;;;;;;0.45;0.40;;;4.90;99.90;;;;;;5011613;28;20033;-83
2021/12/16 06:57:41;;;;;;;0.40;0.40;;;4.90;99.90;;;;;;4992290;28;20067;-82
2021/12/16 07:00:14;;;;;;;;;;;4.90;99.90;;;;;;5005718;28;20034;-82
2021/12/16 07:02:56;;;;;;;0.00;0.00;;;4.90;99.90;;;;;;5011723;28;19948;-82
2021/12/16 07:05:27;;;;;;;0.55;0.47;;;4.80;99.90;;;;;;5010340;28;20497;-83
2021/12/16 07:07:56;;;;;;;0.00;0.00;;;4.80;99.90;;;;;;5005873;28;20113;-81
2021/12/16 07:10:26;;;;;;;0.00;0.00;;;4.80;99.90;;;;;;5006003;28;20035;-82
2021/12/16 07:12:56;;;;;;;0.10;0.10;;;4.80;99.90;;;;;;4999312;28;20022;-83
2021/12/16 07:15:25;;;;;;;0.00;0.00;;;4.80;99.90;;;;;;5010387;28;20022;-81
2021/12/16 07:17:52;;;;;;;0.00;0.00;;;4.80;99.90;;;;;;5000058;28;20389;-81
2021/12/16 07:20:22;;;;;;;0.00;0.00;;;4.80;99.90;;;;;;4997964;28;20026;-84
2021/12/16 07:22:48;;;;;;;0.70;0.70;;;4.80;99.90;;;;;;5002467;28;20026;-84
2021/12/16 07:25:14;;;;;;;0.00;0.00;;;4.80;99.90;;;;;;5007589;28;20565;-84
2021/12/16 07:27:40;;;;;;;0.15;0.15;;;4.80;99.90;;;;;;5003768;28;20100;-81
2021/12/16 07:30:13;;;;;;;0.00;0.00;;;4.80;99.90;;;;;;4995011;28;20060;-82
2021/12/16 07:32:38;;;;;;;0.10;0.10;;;4.80;99.90;;;;;;4996107;28;20528;-85
2021/12/16 07:35:08;;;;;;;0.00;0.00;;;4.90;99.90;;;;;;4994195;28;20022;-86
2021/12/16 07:37:34;;;;;;;0.20;0.20;;;4.80;99.90;;;;;;4998180;28;20030;-84
2021/12/16 07:40:06;;;;;;;0.10;0.10;;;4.90;99.90;;;;;;5003706;28;20042;-85
2021/12/16 07:42:43;;;;;;;0.10;0.10;;;4.90;99.90;;;;;;5008667;28;20409;-81
2021/12/16 07:45:09;;;;;;;0.15;0.15;;;4.80;99.90;;;;;;4999678;28;20037;-85
2021/12/16 07:47:35;;;;;;;0.10;0.10;;;4.80;99.90;;;;;;4998260;28;20371;-85
2021/12/16 07:50:01;;;;;;;0.00;0.00;;;4.80;99.90;;;;;;5011971;28;20125;-85
2021/12/16 07:52:26;;;;;;;0.00;0.00;;;4.80;99.90;;;;;;5008523;28;20373;-86
2021/12/16 07:54:52;;;;;;;0.10;0.10;;;4.80;99.90;;;;;;5006045;28;20080;-84
2021/12/16 07:57:19;;;;;;;3.00;0.35;;;4.80;99.90;;;;;;5011403;28;20085;-76
2021/12/16 07:59:45;;;;;;;0.00;0.00;;;4.80;99.90;;;;;;5002792;28;20030;-83
2021/12/16 08:02:11;;;;;;;0.00;0.00;;;4.80;99.90;;;;;;5008096;28;20029;-84
2021/12/16 08:04:43;;;;;;;0.13;0.13;;;4.90;99.90;;;;;;5004198;28;20528;-84
2021/12/16 08:07:14;;;;;;;0.00;0.00;;;4.80;99.90;;;;;;5004495;28;20038;-81
2021/12/16 08:09:42;;;;;;;0.15;0.15;;;4.90;99.90;;;;;;5006641;28;20144;-82
2021/12/16 08:12:12;;;;;;;0.10;0.10;;;4.80;99.90;;;;;;5004321;28;20481;-82
2021/12/16 08:14:38;;;;;;;0.00;0.00;;;4.80;99.90;;;;;;5014386;28;20018;-85
2021/12/16 08:17:04;;;;;;;0.00;0.00;;;4.80;99.90;;;;;;5009339;28;20038;-85
2021/12/16 08:19:30;;;;;;;0.10;0.10;;;4.80;99.90;;;;;;5007743;28;20103;-80
2021/12/16 08:21:56;;;;;;;0.10;0.10;;;4.80;99.90;;;;;;5014476;28;20041;-84
2021/12/16 08:24:21;;;;;;;0.10;0.10;;;4.80;99.90;;;;;;5011939;28;20034;-85
2021/12/16 08:26:49;;;;;;;0.00;0.00;;;4.80;99.90;;;;;;5013995;28;20335;-86
2021/12/16 08:29:16;;;;;;;0.00;0.00;;;4.80;99.90;;;;;;5015789;28;20026;-87
2021/12/16 08:31:41;;;;;;;0.25;0.25;;;4.80;99.90;;;;;;5010773;28;20105;-84
2021/12/16 08:34:08;;;;;;;0.00;0.00;;;4.80;99.90;;;;;;5012423;28;20069;-79
2021/12/16 08:36:35;;;;;;;0.00;0.00;;;4.80;99.90;;;;;;5012503;28;20041;-82
2021/12/16 08:39:04;;;;;;;0.00;0.00;;;4.80;99.90;;;;;;4997954;28;20030;-79
2021/12/16 08:41:33;;;;;;;0.00;0.00;;;4.70;99.90;;;;;;5012183;28;20038;-87
2021/12/16 08:44:00;;;;;;;0.00;0.00;;;4.70;99.90;;;;;;5012942;28;20578;-88
2021/12/16 08:46:29;;;;;;;0.17;0.17;;;4.70;99.90;;;;;;5012126;28;20026;-80
2021/12/16 08:48:55;;;;;;;0.00;0.00;;;4.70;99.90;;;;;;5011496;28;20025;-80
2021/12/16 08:51:25;;;;;;;0.10;0.10;;;4.70;99.90;;;;;;5012615;28;20036;-84
2021/12/16 08:53:52;;;;;;;0.05;0.05;;;4.80;99.90;;;;;;5006857;28;20032;-88
2021/12/16 08:56:18;;;;;;;0.10;0.10;;;4.80;99.90;;;;;;5000134;28;20507;-89
2021/12/16 08:58:44;;;;;;;0.00;0.00;;;4.90;99.90;;;;;;5004451;28;20042;-80
2021/12/16 09:01:19;;;;;;;0.00;0.00;;;4.90;99.90;;;;;;5005785;28;20026;-77
2021/12/16 09:03:46;;;;;;;0.00;0.00;;;4.90;99.90;;;;;;4993131;28;20030;-86
2021/12/16 09:06:12;;;;;;;0.00;0.00;;;5.00;99.90;;;;;;5008743;28;20044;-87
2021/12/16 09:08:38;;;;;;;0.17;0.17;;;5.00;99.90;;;;;;4991472;28;20701;-85
2021/12/16 09:11:07;;;;;;;0.20;0.20;;;5.00;99.90;;;;;;4992562;28;20077;-87
2021/12/16 09:14:07;;;;;;;0.00;0.00;;;5.00;99.90;;;;;;4997055;28;20026;-80
2021/12/16 09:16:34;;;;;;;0.13;0.13;;;5.00;99.90;;;;;;5005440;28;20515;-87
2021/12/16 09:19:00;;;;;;;0.00;0.00;;;5.00;99.90;;;;;;5000238;28;20393;-87
2021/12/16 09:21:30;;;;;;;0.00;0.00;;;5.10;99.90;;;;;;5011754;28;20034;-78
2021/12/16 09:23:58;;;;;;;0.05;0.05;;;5.10;99.90;;;;;;5011217;28;20104;-86
2021/12/16 09:26:25;;;;;;;0.00;0.00;;;5.10;99.90;;;;;;5007732;28;20032;-85
2021/12/16 09:28:52;;;;;;;0.00;0.00;;;5.20;99.90;;;;;;5008436;28;20030;-82
2021/12/16 09:31:23;;;;;;;0.10;0.10;;;5.20;99.90;;;;;;5008166;28;20022;-84
2021/12/16 09:33:53;;;;;;;0.88;0.60;;;5.30;99.90;;;;;;5010176;28;20096;-82
2021/12/16 09:36:23;;;;;;;0.47;0.47;;;5.30;99.90;;;;;;5001698;28;20026;-84
2021/12/16 09:38:49;;;;;;;0.00;0.00;;;5.30;99.90;;;;;;5003877;28;20030;-84
2021/12/16 09:41:16;;;;;;;0.00;0.00;;;5.30;99.90;;;;;;5000517;28;20080;-82
2021/12/16 09:43:45;;;;;;;0.08;0.05;;;5.40;99.90;;;;;;4999375;28;20022;-82
2021/12/16 09:46:14;;;;;;;0.00;0.00;;;5.40;99.90;;;;;;4999857;28;20496;-84
2021/12/16 09:48:41;;;;;;;0.00;0.00;;;5.40;99.90;;;;;;5011116;28;20030;-82
2021/12/16 09:51:09;;;;;;;0.00;0.00;;;5.40;99.90;;;;;;5010177;28;20481;-83
2021/12/16 09:53:38;;;;;;;1.98;0.50;;;5.40;99.90;;;;;;5010497;28;20022;-82
2021/12/16 09:56:08;;;;;;;0.00;0.00;;;5.40;99.90;;;;;;5007562;28;20562;-84
2021/12/16 09:58:38;;;;;;;0.15;0.15;;;5.40;99.90;;;;;;4996253;28;20045;-82
2021/12/16 10:01:05;;;;;;;0.00;0.00;;;5.40;99.90;;;;;;5001027;28;20029;-84
2021/12/16 10:03:31;;;;;;;0.00;0.00;;;5.50;99.90;;;;;;4998412;28;20029;-82
2021/12/16 10:05:58;;;;;;;0.10;0.10;;;5.50;99.90;;;;;;5004168;28;20093;-82
2021/12/16 10:08:24;;;;;;;1.27;0.30;;;5.50;99.90;;;;;;5005731;28;20033;-84
2021/12/16 10:10:49;;;;;;;0.00;0.00;;;5.60;99.90;;;;;;5004933;28;20035;-84
2021/12/16 10:13:22;;;;;;;0.00;0.00;;;5.60;99.90;;;;;;5002638;28;20587;-84
2021/12/16 10:18:22;;;;;;;0.03;0.03;;;5.60;99.90;;;;;;5010378;28;20048;-82
2021/12/16 10:20:57;;;;;;;0.10;0.10;;;5.70;99.90;;;;;;5031084;28;20018;-82
2021/12/16 10:23:29;;;;;;;0.05;0.05;;;5.70;99.90;;;;;;5007653;28;20109;-84
2021/12/16 10:26:06;;;;;;;0.35;0.35;;;5.80;99.90;;;;;;5002533;28;20058;-85
2021/12/16 10:28:38;;;;;;;0.10;0.10;;;5.80;99.90;;;;;;5000552;28;20025;-84
2021/12/16 10:31:21;;;;;;;0.00;0.00;;;5.90;99.90;;;;;;4998381;28;20073;-83
2021/12/16 10:33:57;;;;;;;0.20;0.20;;;5.90;99.90;;;;;;5007990;28;20564;-85
2021/12/16 10:36:42;;;;;;;0.00;0.00;;;5.90;99.90;;;;;;5012252;28;20030;-85
2021/12/16 10:39:22;;;;;;;0.00;0.00;;;5.90;99.90;;;;;;5008504;28;20076;-85
2021/12/16 10:41:50;;;;;;;0.00;0.00;;;5.90;99.90;;;;;;4999271;28;20694;-85
2021/12/16 10:44:21;;;;;;;0.30;0.30;;;5.90;99.90;;;;;;5012577;28;20022;-85
2021/12/16 10:46:49;;;;;;;1.27;1.13;;;6.00;99.90;;;;;;5004511;28;20498;-86
2021/12/16 10:49:25;;;;;;;0.00;0.00;;;6.00;99.90;;;;;;5001934;28;20136;-85
2021/12/16 10:52:01;;;;;;;0.00;0.00;;;6.10;99.90;;;;;;5011108;28;20061;-85
2021/12/16 10:54:26;;;;;;;0.00;0.00;;;6.20;99.90;;;;;;5001671;28;20038;-85
2021/12/16 10:57:17;;;;;;;0.00;0.00;;;6.20;99.90;;;;;;5008211;28;20038;-85
2021/12/16 10:59:46;;;;;;;0.17;0.17;;;6.20;99.90;;;;;;4996706;28;20050;-84
2021/12/16 11:02:32;;;;;;;0.00;0.00;;;6.20;99.90;;;;;;5014059;28;20026;-84
2021/12/16 11:05:02;;;;;;;0.00;0.00;;;6.20;99.90;;;;;;5013800;28;20113;-85
2021/12/16 11:07:40;;;;;;;0.10;0.10;;;6.30;99.90;;;;;;5014333;28;20113;-85
2021/12/16 11:10:14;;;;;;;1.92;1.13;;;6.30;99.90;;;;;;5013462;28;20021;-85
2021/12/16 11:12:45;;;;;;;0.00;0.00;;;6.40;99.90;;;;;;5012072;28;20030;-82
2021/12/16 11:15:15;;;;;;;0.00;0.00;;;6.30;99.90;;;;;;5005709;28;20038;-83
2021/12/16 11:17:51;;;;;;;0.00;0.00;;;6.30;99.90;;;;;;5004628;28;20030;-81
2021/12/16 11:20:22;;;;;;;0.00;0.00;;;6.40;99.90;;;;;;5007278;28;20125;-82
2021/12/16 11:22:52;;;;;;;0.00;0.00;;;6.50;99.90;;;;;;4999562;28;20080;-82
2021/12/16 11:25:27;;;;;;;0.00;0.00;;;6.50;99.90;;;;;;5000872;28;20022;-81
2021/12/16 11:28:15;;;;;;;0.00;0.00;;;6.50;99.90;;;;;;4995583;28;20033;-84
2021/12/16 11:31:07;;;;;;;0.00;0.00;;;6.60;99.90;;;;;;4991733;28;20053;-84
2021/12/16 11:33:38;;;;;;;0.10;0.10;;;6.70;99.90;;;;;;4979716;28;20108;-84
2021/12/16 11:36:07;;;;;;;0.00;0.00;;;6.90;99.90;;;;;;5006249;28;20493;-82
2021/12/16 11:38:44;;;;;;;0.17;0.17;;;6.90;99.90;;;;;;5010702;28;20041;-84
2021/12/16 11:41:27;;;;;;;0.00;0.00;;;6.90;99.90;;;;;;5002233;28;20039;-82
2021/12/16 11:43:55;;;;;;;0.00;0.00;;;6.80;99.90;;;;;;5005907;28;20542;-85
2021/12/16 11:46:28;;;;;;;0.30;0.25;;;6.70;99.90;;;;;;5002130;28;20045;-84
2021/12/16 11:48:58;;;;;;;0.00;0.00;;;6.60;99.90;;;;;;5009253;28;20030;-82
2021/12/16 11:51:27;;;;;;;0.00;0.00;;;6.50;99.90;;;;;;5006054;28;20136;-84
2021/12/16 11:53:58;;;;;;;0.00;0.00;;;6.50;99.90;;;;;;4998265;28;20458;-85
2021/12/16 11:56:37;;;;;;;0.00;0.00;;;6.40;99.90;;;;;;5000910;28;20034;-85
2021/12/16 11:59:05;;;;;;;0.08;0.08;;;6.40;99.90;;;;;;4998882;28;20095;-82
2021/12/16 12:01:34;;;;;;;0.15;0.15;;;6.40;99.90;;;;;;4996195;28;20821;-82
2021/12/16 12:04:07;;;;;;;0.00;0.00;;;6.40;99.90;;;;;;4992280;28;20034;-81
2021/12/16 12:06:33;;;;;;;0.00;0.00;;;6.50;99.90;;;;;;4998481;28;20042;-84
2021/12/16 12:09:01;;;;;;;0.00;0.00;;;6.50;99.90;;;;;;4994147;28;20493;-85
2021/12/16 12:11:33;;;;;;;0.00;0.00;;;6.40;99.90;;;;;;5003943;28;20030;-84
2021/12/16 12:14:04;;;;;;;0.00;0.00;;;6.40;99.90;;;;;;5005371;28;20453;-81
2021/12/16 12:16:33;;;;;;;0.00;0.00;;;6.50;99.90;;;;;;5013071;28;20030;-85
2021/12/16 12:19:21;;;;;;;0.00;0.00;;;6.50;99.90;;;;;;5012004;28;20030;-84
2021/12/16 12:21:50;;;;;;;0.57;0.20;;;6.50;99.90;;;;;;5006886;28;20034;-84
2021/12/16 12:24:34;;;;;;;0.10;0.10;;;6.60;99.90;;;;;;5003691;28;20030;-85
2021/12/16 12:27:08;;;;;;;0.00;0.00;;;6.70;99.90;;;;;;5009628;28;20088;-82
2021/12/16 12:29:49;;;;;;;0.00;0.00;;;6.70;99.90;;;;;;5010779;28;20025;-85
2021/12/16 12:32:25;;;;;;;0.10;0.10;;;6.80;99.90;;;;;;5006141;28;20033;-84
2021/12/16 12:35:02;;;;;;;0.00;0.00;;;6.90;99.90;;;;;;4998382;28;20027;-84
2021/12/16 12:37:31;;;;;;;30.42;1.20;;;6.80;99.90;;;;;;4996740;28;20025;-84
2021/12/16 12:40:21;;;;;;;0.00;0.00;;;6.80;99.90;;;;;;5002760;28;20092;-83
2021/12/16 12:42:50;;;;;;;0.00;0.00;;;6.70;99.90;;;;;;4992310;28;20048;-84
2021/12/16 12:45:19;;;;;;;0.00;0.00;;;6.80;99.90;;;;;;4996880;28;20022;-85
2021/12/16 12:47:48;;;;;;;0.00;0.00;;;6.60;99.90;;;;;;5005462;28;20022;-84
2021/12/16 12:50:34;;;;;;;0.00;0.00;;;6.50;99.90;;;;;;5015603;28;20049;-81
2021/12/16 12:53:12;;;;;;;0.00;0.00;;;6.60;99.90;;;;;;5007996;28;20052;-83
2021/12/16 12:55:38;;;;;;;0.00;0.00;;;6.60;99.90;;;;;;5025695;28;20034;-83
2021/12/16 12:58:07;;;;;;;0.28;0.28;;;6.80;99.90;;;;;;5025425;28;20081;-84
2021/12/16 13:00:59;;;;;;;0.00;0.00;;;6.90;99.90;;;;;;5006379;28;20052;-83
2021/12/16 13:03:30;;;;;;;0.10;0.10;;;6.90;99.90;;;;;;4999259;28;20018;-85
2021/12/16 13:06:02;;;;;;;0.00;0.00;;;6.90;99.90;;;;;;4994029;28;20042;-84
2021/12/16 13:08:31;;;;;;;0.10;0.10;;;6.80;99.90;;;;;;4988871;28;20023;-81
2021/12/16 13:11:13;;;;;;;0.10;0.10;;;6.90;99.90;;;;;;4995516;28;20026;-81
2021/12/16 13:14:23;;;;;;;0.00;0.00;;;7.00;99.90;;;;;;5002377;28;20026;-83
2021/12/16 13:26:26;;;;;;;0.00;0.00;;;6.80;99.90;;;;;;4985092;28;20136;-84
2021/12/16 13:28:47;;;;;;;0.00;0.00;;;6.90;99.90;;;;;;4970941;28;20039;-82
2021/12/16 13:31:45;;;;;;;0.00;0.00;;;6.90;99.90;;;;;;4973745;28;20069;-83
2021/12/16 13:34:35;;;;;;;0.90;0.47;;;6.90;99.90;;;;;;4981502;28;20066;-82
2021/12/16 13:37:21;;;;;;;0.00;0.00;;;7.10;99.90;;;;;;4988232;28;20141;-83
2021/12/16 13:39:49;;;;;;;0.25;0.25;;;7.30;99.90;;;;;;4954974;28;20418;-82
2021/12/16 13:42:16;;;;;;;0.00;0.00;;;7.30;99.90;;;;;;4970460;28;20037;-83
2021/12/16 13:44:49;;;;;;;0.13;0.13;;;7.50;99.90;;;;;;4969272;28;20050;-82
2021/12/16 13:58:41;;;;;;;0.82;0.08;;;7.10;99.90;;;;;;4998236;28;20076;-82
2021/12/16 14:07:02;;;;;;;0.00;0.00;;;7.00;99.90;;;;;;4992424;28;20041;-83
2021/12/16 14:09:34;;;;;;;0.00;0.00;;;7.00;99.90;;;;;;5009654;28;20027;-83
2021/12/16 14:23:23;;;;;;;0.00;0.00;;;7.10;99.90;;;;;;5008103;28;20121;-82
2021/12/16 14:47:57;;;;;;;0.43;0.32;;;7.30;99.90;;;;;;5004540;28;20057;-84
2021/12/16 14:50:34;;;;;;;0.00;0.00;;;7.20;99.90;;;;;;4999912;28;20022;-83
2021/12/16 14:53:09;;;;;;;0.00;0.00;;;7.30;99.90;;;;;;5014527;28;20026;-83
2021/12/16 14:55:37;;;;;;;0.10;0.10;;;7.30;99.90;;;;;;5009639;28;20026;-84
2021/12/16 14:58:03;;;;;;;0.20;0.05;;;7.30;99.90;;;;;;5000306;28;20053;-85
2021/12/16 15:00:36;;;;;;;0.00;0.00;;;7.20;99.90;;;;;;5008380;28;20532;-86
2021/12/16 15:03:19;;;;;;;0.10;0.10;;;7.10;99.90;;;;;;5016877;28;20489;-84
2021/12/16 15:05:47;;;;;;;0.00;0.00;;;7.20;99.90;;;;;;5009287;28;20033;-81
2021/12/16 15:08:25;;;;;;;0.00;0.00;;;7.20;99.90;;;;;;5014389;28;20050;-84
2021/12/16 15:10:51;;;;;;;0.00;0.00;;;7.10;99.90;;;;;;5001047;28;20018;-82
2021/12/16 15:13:25;;;;;;;0.10;0.10;;;7.20;99.90;;;;;;5014311;28;20022;-84
2021/12/16 15:38:43;;;;;;;0.00;0.00;;;7.90;99.90;;;;;;4941962;29;20553;-81
2021/12/16 15:43:36;;;;;;;0.13;0.13;;;7.90;99.90;;;;;;4942890;28;20529;-80
2021/12/16 15:46:05;;;;;;;0.00;0.00;;;7.90;99.90;;;;;;4941048;29;20483;-81
2021/12/16 15:48:31;;;;;;;0.08;0.08;;;7.90;99.90;;;;;;4953384;28;20129;-81
2021/12/16 15:51:09;;;;;;;0.00;0.00;;;7.90;99.90;;;;;;5012332;28;20021;-81
2021/12/16 15:53:45;;;;;;;0.00;0.00;;;7.70;99.90;;;;;;5013567;28;20425;-82
2021/12/16 15:56:20;;;;;;;0.43;0.38;;;7.60;99.90;;;;;;5002486;28;20041;-81
2021/12/16 15:58:56;;;;;;;0.80;0.25;;;7.50;99.90;;;;;;5007507;28;20575;-81
2021/12/16 16:01:29;;;;;;;0.00;0.00;;;7.40;99.90;;;;;;5014146;28;20124;-80
2021/12/16 16:03:57;;;;;;;0.00;0.00;;;7.20;99.90;;;;;;4994678;28;20030;-81
2021/12/16 16:06:27;;;;;;;0.00;0.00;;;7.00;99.90;;;;;;5006624;28;20037;-81
2021/12/16 16:08:56;;;;;;;1.20;1.08;;;6.80;99.90;;;;;;5012658;28;20018;-80
2021/12/16 16:11:32;;;;;;;0.20;0.20;;;6.60;99.90;;;;;;4993334;28;20580;-81
2021/12/16 16:14:03;;;;;;;0.00;0.00;;;6.40;99.90;;;;;;5003252;28;20053;-81
2021/12/16 16:16:37;;;;;;;0.00;0.00;;;6.40;99.90;;;;;;5004276;28;20034;-81
2021/12/16 16:19:04;;;;;;;0.00;0.00;;;6.30;99.90;;;;;;5011112;28;20457;-80
2021/12/16 16:21:31;;;;;;;0.00;0.00;;;6.20;99.90;;;;;;5014047;28;20034;-81
2021/12/16 16:24:02;;;;;;;0.00;0.00;;;6.10;99.90;;;;;;5012877;28;20052;-80
2021/12/16 16:26:29;;;;;;;0.20;0.20;;;6.10;99.90;;;;;;5012721;28;20022;-81
2021/12/16 16:29:05;;;;;;;0.40;0.40;;;6.00;99.90;;;;;;5013044;28;20030;-81
2021/12/16 16:31:33;;;;;;;0.00;0.00;;;6.00;99.90;;;;;;5014120;28;20025;-82
2021/12/16 16:34:00;;;;;;;0.00;0.00;;;5.90;99.90;;;;;;5013762;28;20069;-80
2021/12/16 16:36:28;;;;;;;0.00;0.00;;;5.90;99.90;;;;;;5013753;28;20102;-79
2021/12/16 16:39:02;;;;;;;0.00;0.00;;;5.90;99.90;;;;;;5013715;28;20438;-80
2021/12/16 16:41:32;;;;;;;0.20;0.20;;;5.90;99.90;;;;;;5011662;28;20030;-82
2021/12/16 16:44:00;;;;;;;0.52;0.40;;;5.90;99.90;;;;;;5012144;28;20038;-80
2021/12/16 16:46:40;;;;;;;0.03;0.03;;;5.90;99.90;;;;;;5012675;28;20026;-81
2021/12/16 16:49:09;;;;;;;0.28;0.22;;;5.90;99.90;;;;;;5013425;28;20026;-79
2021/12/16 16:51:48;;;;;;;0.00;0.00;;;6.00;99.90;;;;;;5012644;28;20068;-80
2021/12/16 16:54:18;;;;;;;0.00;0.00;;;6.00;99.90;;;;;;5007310;28;20037;-81
2021/12/16 16:57:02;;;;;;;2.40;0.55;;;6.00;99.90;;;;;;5007738;28;20030;-82
2021/12/16 16:59:32;;;;;;;0.20;0.20;;;6.00;99.90;;;;;;5002919;28;20405;-81
2021/12/16 17:02:01;;;;;;;0.00;0.00;;;6.00;99.90;;;;;;4993740;28;20516;-79
2021/12/16 17:04:30;;;;;;;0.13;0.13;;;6.00;99.90;;;;;;4993680;28;20022;-80
2021/12/16 17:06:56;;;;;;;0.00;0.00;;;5.90;99.90;;;;;;4994143;28;20030;-83
2021/12/16 17:09:29;;;;;;;0.30;0.30;;;5.90;99.90;;;;;;4993628;28;20510;-83
2021/12/16 17:11:55;;;;;;;0.30;0.30;;;5.90;99.90;;;;;;5007181;28;20022;-80
2021/12/16 17:14:33;;;;;;;0.28;0.28;;;5.90;99.90;;;;;;5013476;28;20025;-80
2021/12/16 17:20:03;;;;;;;0.35;0.32;;;5.90;99.90;;;;;;5013530;28;20037;-84
2021/12/16 17:22:40;;;;;;;0.08;0.05;;;5.90;99.90;;;;;;5013492;28;20033;-83
2021/12/16 17:25:08;;;;;;;0.85;0.82;;;5.90;99.90;;;;;;5013283;28;20037;-82
2021/12/16 17:27:41;;;;;;;0.10;0.10;;;5.90;99.90;;;;;;5013489;28;20084;-80